createdAt,value
2018-09-06T00:00:36.956Z,101090.51
2018-09-06T00:03:05.819Z,101081.63
2018-09-06T00:05:34.737Z,101075.19
2018-09-06T00:08:03.635Z,101075.32
2018-09-06T00:10:32.473Z,101065.17
2018-09-06T00:13:01.342Z,101063.66
2018-09-06T00:15:30.164Z,101052.37
2018-09-06T00:17:59.011Z,101052.37
2018-09-06T00:20:27.854Z,101057.09
2018-09-06T00:22:56.732Z,101053.32
2018-09-06T00:25:25.600Z,101047.39
2018-09-06T00:27:54.425Z,101047.23
2018-09-06T00:30:23.260Z,101038.19
2018-09-06T00:32:52.094Z,101036.70
2018-09-06T00:35:20.938Z,101037.86
2018-09-06T00:37:49.831Z,101040.56
2018-09-06T00:40:18.712Z,101040.66
2018-09-06T00:42:47.593Z,101044.03
2018-09-06T00:45:16.474Z,101043.42
2018-09-06T00:47:45.306Z,101040.67
2018-09-06T00:50:21.280Z,101042.70
2018-09-06T00:52:51.372Z,101035.17
2018-09-06T00:55:20.757Z,101029.14
2018-09-06T00:57:49.651Z,101024.41
2018-09-06T01:00:18.520Z,101017.81
2018-09-06T01:02:47.372Z,101022.08
2018-09-06T01:05:16.224Z,101019.66
2018-09-06T01:07:45.068Z,101017.80
2018-09-06T01:10:14.607Z,101009.17
2018-09-06T01:12:43.479Z,101005.05
2018-09-06T01:15:12.387Z,101006.34
2018-09-06T01:17:41.233Z,101000.86
2018-09-06T01:20:10.166Z,100998.63
2018-09-06T01:22:39.672Z,101001.38
2018-09-06T01:25:08.558Z,101006.80
2018-09-06T01:27:37.483Z,100995.99
2018-09-06T01:30:06.362Z,100997.26
2018-09-06T01:32:35.226Z,101000.44
2018-09-06T01:35:04.118Z,100998.34
2018-09-06T01:37:32.979Z,100996.63
2018-09-06T01:40:01.867Z,100989.42
2018-09-06T01:42:30.758Z,100979.76
2018-09-06T01:44:59.581Z,100980.34
2018-09-06T01:47:28.466Z,100977.55
2018-09-06T01:49:57.282Z,100972.81
2018-09-06T01:52:26.156Z,100967.06
2018-09-06T01:54:55.021Z,100970.47
2018-09-06T01:57:23.851Z,100967.84
2018-09-06T01:59:52.741Z,100956.56
2018-09-06T02:02:21.602Z,100958.55
2018-09-06T02:04:50.461Z,100957.17
2018-09-06T02:07:19.280Z,100958.45
2018-09-06T02:09:48.153Z,100956.76
2018-09-06T02:12:16.985Z,100948.97
2018-09-06T02:14:45.913Z,100950.80
2018-09-06T02:17:14.752Z,100935.73
2018-09-06T02:19:43.591Z,100939.19
2018-09-06T02:22:12.416Z,100937.59
2018-09-06T02:24:41.271Z,100927.78
2018-09-06T02:27:10.106Z,100927.91
2018-09-06T02:29:38.967Z,100932.34
2018-09-06T02:32:07.880Z,100930.52
2018-09-06T02:34:36.750Z,100926.78
2018-09-06T02:37:05.610Z,100919.73
2018-09-06T02:39:34.448Z,100925.73
2018-09-06T02:42:03.339Z,100922.14
2018-09-06T02:44:32.237Z,100923.70
2018-09-06T02:47:01.125Z,100919.25
2018-09-06T02:49:47.655Z,100915.84
2018-09-06T02:52:16.554Z,100915.48
2018-09-06T02:54:45.415Z,100915.89
2018-09-06T02:57:14.309Z,100913.84
2018-09-06T02:59:46.203Z,100914.89
2018-09-06T03:02:15.094Z,100900.82
2018-09-06T03:04:44.188Z,100901.48
2018-09-06T03:07:13.080Z,100899.06
2018-09-06T03:09:41.929Z,100900.77
2018-09-06T03:12:10.923Z,100897.17
2018-09-06T03:14:39.802Z,100898.55
2018-09-06T03:17:08.701Z,100904.38
2018-09-06T03:19:37.582Z,100906.27
2018-09-06T03:22:06.450Z,100903.05
2018-09-06T03:24:35.308Z,100903.30
2018-09-06T03:27:04.165Z,100897.46
2018-09-06T03:29:33.030Z,100894.71
2018-09-06T03:32:01.919Z,100890.12
2018-09-06T03:34:30.739Z,100889.38
2018-09-06T03:36:59.608Z,100886.84
2018-09-06T03:39:28.475Z,100890.35
2018-09-06T03:41:57.341Z,100886.31
2018-09-06T03:44:26.203Z,100888.94
2018-09-06T03:46:55.064Z,100890.14
2018-09-06T03:49:23.913Z,100891.52
2018-09-06T03:51:52.759Z,100890.48
2018-09-06T03:54:21.623Z,100890.44
2018-09-06T03:56:50.476Z,100875.05
2018-09-06T03:59:19.323Z,100871.36
2018-09-06T04:01:48.175Z,100868.98
2018-09-06T04:04:17.037Z,100879.51
2018-09-06T04:06:45.882Z,100889.83
2018-09-06T04:09:14.731Z,100888.65
2018-09-06T04:11:43.580Z,100890.55
2018-09-06T04:14:12.448Z,100882.96
2018-09-06T04:16:41.291Z,100887.42
2018-09-06T04:19:10.134Z,100888.05
2018-09-06T04:21:39.513Z,100887.32
2018-09-06T04:24:08.426Z,100891.44
2018-09-06T04:26:37.265Z,100892.48
2018-09-06T04:29:06.090Z,100883.77
2018-09-06T04:31:34.945Z,100887.80
2018-09-06T04:34:03.834Z,100891.14
2018-09-06T04:36:32.692Z,100896.45
2018-09-06T04:39:01.526Z,100887.69
2018-09-06T04:41:30.353Z,100887.42
2018-09-06T04:43:59.180Z,100890.35
2018-09-06T04:46:28.044Z,100885.65
2018-09-06T04:48:56.867Z,100880.53
2018-09-06T04:51:25.747Z,100879.53
2018-09-06T04:53:54.607Z,100885.25
2018-09-06T04:56:23.458Z,100880.66
2018-09-06T04:58:52.365Z,100879.42
2018-09-06T05:01:21.225Z,100885.03
2018-09-06T05:03:50.064Z,100887.15
2018-09-06T05:06:18.912Z,100885.44
2018-09-06T05:08:47.761Z,100887.52
2018-09-06T05:11:16.606Z,100894.06
2018-09-06T05:13:45.468Z,100895.09
2018-09-06T05:16:14.285Z,100901.80
2018-09-06T05:18:43.142Z,100903.11
2018-09-06T05:21:11.973Z,100907.98
2018-09-06T05:23:40.897Z,100912.47
2018-09-06T05:26:09.734Z,100917.26
2018-09-06T05:28:38.598Z,100913.73
2018-09-06T05:31:07.473Z,100916.59
2018-09-06T05:33:36.320Z,100916.33
2018-09-06T05:36:05.215Z,100914.81
2018-09-06T05:38:34.013Z,100912.47
2018-09-06T05:41:02.862Z,100912.14
2018-09-06T05:43:31.751Z,100910.36
2018-09-06T05:46:00.625Z,100906.72
2018-09-06T05:48:29.461Z,100907.20
2018-09-06T05:50:58.321Z,100907.31
2018-09-06T05:53:27.223Z,100908.35
2018-09-06T05:55:56.022Z,100912.28
2018-09-06T05:58:24.858Z,100913.14
2018-09-06T06:00:53.701Z,100917.59
2018-09-06T06:03:22.533Z,100921.78
2018-09-06T06:05:51.472Z,100923.41
2018-09-06T06:08:40.026Z,100922.38
2018-09-06T06:11:09.049Z,100921.89
2018-09-06T06:13:37.923Z,100920.73
2018-09-06T06:16:06.848Z,100923.48
2018-09-06T06:18:35.708Z,100922.11
2018-09-06T06:21:04.668Z,100923.44
2018-09-06T06:23:33.567Z,100921.73
2018-09-06T06:26:02.574Z,100924.44
2018-09-06T06:28:31.357Z,100926.85
2018-09-06T06:31:00.220Z,100924.44
2018-09-06T06:33:29.135Z,100919.80
2018-09-06T06:35:58.022Z,100913.97
2018-09-06T06:38:26.909Z,100921.03
2018-09-06T06:40:55.782Z,100922.78
2018-09-06T06:43:24.620Z,100924.63
2018-09-06T06:45:53.512Z,100922.55
2018-09-06T06:48:22.348Z,100917.95
2018-09-06T06:50:51.283Z,100913.27
2018-09-06T06:53:20.157Z,100911.81
2018-09-06T06:55:49.021Z,100909.16
2018-09-06T06:58:17.960Z,100910.11
2018-09-06T07:00:46.848Z,100914.56
2018-09-06T07:03:15.681Z,100922.61
2018-09-06T07:05:44.528Z,100918.35
2018-09-06T07:08:13.370Z,100905.84
2018-09-06T07:10:42.207Z,100903.67
2018-09-06T07:13:11.049Z,100895.72
2018-09-06T07:15:39.893Z,100898.93
2018-09-06T07:18:09.220Z,100897.66
2018-09-06T07:20:37.997Z,100894.34
2018-09-06T07:23:06.930Z,100900.55
2018-09-06T07:25:35.816Z,100891.92
2018-09-06T07:28:04.672Z,100889.55
2018-09-06T07:30:33.579Z,100888.23
2018-09-06T07:33:02.399Z,100891.27
2018-09-06T07:35:31.292Z,100879.74
2018-09-06T07:38:00.152Z,100892.84
2018-09-06T07:40:28.989Z,100892.75
2018-09-06T07:42:57.858Z,100897.41
2018-09-06T07:45:26.756Z,100898.51
2018-09-06T07:47:55.710Z,100898.51
2018-09-06T07:50:24.530Z,100900.92
2018-09-06T07:52:53.395Z,100896.33
2018-09-06T07:55:22.269Z,100896.79
2018-09-06T07:57:51.111Z,100898.53
2018-09-06T08:00:20.015Z,100895.59
2018-09-06T08:02:48.863Z,100896.64
2018-09-06T08:05:17.756Z,100901.42
2018-09-06T08:07:46.736Z,100892.95
2018-09-06T08:10:15.591Z,100890.96
2018-09-06T08:12:44.433Z,100880.05
2018-09-06T08:15:13.297Z,100886.16
2018-09-06T08:17:42.160Z,100887.69
2018-09-06T08:20:11.818Z,100882.41
2018-09-06T08:22:40.873Z,100883.18
2018-09-06T08:25:10.130Z,100882.88
2018-09-06T08:27:41.704Z,100876.05
2018-09-06T08:30:10.887Z,100870.11
2018-09-06T08:32:40.084Z,100877.27
2018-09-06T08:35:09.284Z,100872.87
2018-09-06T08:37:38.520Z,100873.83
2018-09-06T08:40:07.667Z,100870.00
2018-09-06T08:42:37.364Z,100870.66
2018-09-06T08:45:06.254Z,100861.11
2018-09-06T08:47:35.210Z,100863.31
2018-09-06T08:50:04.184Z,100865.31
2018-09-06T08:52:33.100Z,100873.59
2018-09-06T08:55:01.833Z,100875.30
2018-09-06T08:57:30.717Z,100882.40
2018-09-06T08:59:59.660Z,100876.80
2018-09-06T09:02:28.634Z,100868.86
2018-09-06T09:04:57.386Z,100874.56
2018-09-06T09:07:26.218Z,100876.03
2018-09-06T09:09:55.228Z,100878.23
2018-09-06T09:12:24.117Z,100871.95
2018-09-06T09:14:52.967Z,100874.17
2018-09-06T09:17:21.816Z,100865.85
2018-09-06T09:19:50.749Z,100862.50
2018-09-06T09:22:19.723Z,100859.41
2018-09-06T09:24:48.488Z,100862.73
2018-09-06T09:27:17.327Z,100854.71
2018-09-06T09:29:46.184Z,100851.30
2018-09-06T09:32:15.028Z,100855.48
2018-09-06T09:34:43.846Z,100848.59
2018-09-06T09:37:12.698Z,100850.63
2018-09-06T09:39:41.545Z,100846.41
2018-09-06T09:42:10.600Z,100849.61
2018-09-06T09:44:39.492Z,100843.16
2018-09-06T09:49:36.410Z,100845.16
2018-09-06T09:52:05.258Z,100841.98
2018-09-06T09:54:34.142Z,100851.19
2018-09-06T09:57:03.074Z,100844.09
2018-09-06T09:59:31.844Z,100848.34
2018-09-06T10:02:18.447Z,100847.30
2018-09-06T10:05:15.344Z,100837.97
2018-09-06T10:07:57.910Z,100849.48
2018-09-06T10:10:27.212Z,100849.52
2018-09-06T10:12:56.102Z,100847.82
2018-09-06T10:15:24.961Z,100842.62
2018-09-06T10:17:53.870Z,100840.72
2018-09-06T10:20:22.731Z,100841.36
2018-09-06T10:22:51.604Z,100842.53
2018-09-06T10:25:20.542Z,100841.23
2018-09-06T10:27:49.432Z,100836.07
2018-09-06T10:30:18.370Z,100837.54
2018-09-06T10:32:47.224Z,100840.52
2018-09-06T10:35:16.113Z,100846.97
2018-09-06T10:37:45.109Z,100846.32
2018-09-06T10:40:13.959Z,100845.36
2018-09-06T10:42:43.205Z,100843.25
2018-09-06T10:45:12.045Z,100841.45
2018-09-06T10:47:40.915Z,100844.21
2018-09-06T10:50:09.736Z,100845.27
2018-09-06T10:52:38.605Z,100845.38
2018-09-06T10:55:07.467Z,100854.06
2018-09-06T10:57:36.344Z,100847.30
2018-09-06T11:00:05.240Z,100847.17
2018-09-06T11:02:34.170Z,100846.33
2018-09-06T11:05:03.196Z,100842.52
2018-09-06T11:07:32.113Z,100848.67
2018-09-06T11:10:00.966Z,100844.01
2018-09-06T11:12:29.907Z,100848.77
2018-09-06T11:14:58.879Z,100848.64
2018-09-06T11:17:27.692Z,100847.06
2018-09-06T11:19:56.535Z,100842.19
2018-09-06T11:22:25.464Z,100844.18
2018-09-06T11:24:54.297Z,100848.20
2018-09-06T11:27:23.220Z,100834.61
2018-09-06T11:29:52.031Z,100835.14
2018-09-06T11:32:20.860Z,100826.03
2018-09-06T11:34:49.817Z,100819.78
2018-09-06T11:37:18.609Z,100825.09
2018-09-06T11:39:47.473Z,100825.30
2018-09-06T11:42:16.356Z,100820.13
2018-09-06T11:44:45.248Z,100822.87
2018-09-06T11:47:14.272Z,100826.27
2018-09-06T11:49:43.002Z,100825.66
2018-09-06T11:52:11.901Z,100822.57
2018-09-06T11:54:40.756Z,100818.34
2018-09-06T11:57:09.646Z,100819.28
2018-09-06T11:59:38.479Z,100814.88
2018-09-06T12:02:07.460Z,100815.14
2018-09-06T12:04:36.318Z,100811.34
2018-09-06T12:07:05.223Z,100811.69
2018-09-06T12:09:34.117Z,100814.31
2018-09-06T12:12:02.985Z,100809.09
2018-09-06T12:14:31.820Z,100812.73
2018-09-06T12:17:00.674Z,100802.98
2018-09-06T12:19:29.697Z,100807.95
2018-09-06T12:21:58.586Z,100807.52
2018-09-06T12:24:27.475Z,100799.51
2018-09-06T12:26:56.348Z,100796.93
2018-09-06T12:29:25.292Z,100793.64
2018-09-06T12:31:54.140Z,100791.80
2018-09-06T12:34:22.999Z,100792.61
2018-09-06T12:36:51.820Z,100795.58
2018-09-06T12:39:20.713Z,100799.19
2018-09-06T12:41:49.599Z,100797.50
2018-09-06T12:44:18.485Z,100799.34
2018-09-06T12:46:47.375Z,100792.36
2018-09-06T12:49:16.259Z,100792.79
2018-09-06T12:51:45.166Z,100789.04
2018-09-06T12:54:14.025Z,100778.95
2018-09-06T12:56:42.938Z,100776.83
2018-09-06T12:59:11.750Z,100785.21
2018-09-06T13:01:40.613Z,100780.75
2018-09-06T13:04:09.447Z,100773.92
2018-09-06T13:06:38.342Z,100763.09
2018-09-06T13:09:07.550Z,100773.60
2018-09-06T13:11:37.058Z,100761.18
2018-09-06T13:14:05.889Z,100759.98
2018-09-06T13:16:35.023Z,100763.91
2018-09-06T13:19:04.246Z,100759.23
2018-09-06T13:21:33.429Z,100760.83
2018-09-06T13:24:02.527Z,100762.33
2018-09-06T13:26:31.358Z,100766.95
2018-09-06T13:29:00.251Z,100764.98
2018-09-06T13:31:29.108Z,100763.21
2018-09-06T13:33:57.976Z,100756.38
2018-09-06T13:36:26.923Z,100749.70
2018-09-06T13:38:55.903Z,100752.59
2018-09-06T13:41:24.754Z,100750.13
2018-09-06T13:43:53.603Z,100750.14
2018-09-06T13:46:22.465Z,100749.78
2018-09-06T13:48:51.393Z,100738.84
2018-09-06T13:51:20.303Z,100736.98
2018-09-06T13:53:49.162Z,100735.34
2018-09-06T13:56:18.027Z,100726.00
2018-09-06T13:58:46.946Z,100725.70
2018-09-06T14:01:15.793Z,100724.99
2018-09-06T14:03:44.730Z,100727.59
2018-09-06T14:06:13.581Z,100733.83
2018-09-06T14:08:42.438Z,100727.95
2018-09-06T14:11:11.308Z,100735.17
2018-09-06T14:13:40.159Z,100737.95
2018-09-06T14:16:09.011Z,100734.78
2018-09-06T14:18:37.888Z,100737.09
2018-09-06T14:21:07.228Z,100737.35
2018-09-06T14:23:36.313Z,100731.19
2018-09-06T14:26:05.188Z,100727.22
2018-09-06T14:28:34.152Z,100727.67
2018-09-06T14:31:03.138Z,100727.66
2018-09-06T14:33:32.016Z,100729.64
2018-09-06T14:36:00.873Z,100734.09
2018-09-06T14:38:29.736Z,100727.61
2018-09-06T14:40:58.616Z,100732.47
2018-09-06T14:43:27.485Z,100726.28
2018-09-06T14:45:56.342Z,100722.28
2018-09-06T14:48:25.204Z,100717.10
2018-09-06T14:50:54.144Z,100715.31
2018-09-06T14:53:22.975Z,100714.20
2018-09-06T14:55:51.844Z,100711.87
2018-09-06T14:58:20.777Z,100714.43
2018-09-06T15:00:49.702Z,100711.99
2018-09-06T15:03:18.562Z,100708.70
2018-09-06T15:05:47.451Z,100711.99
2018-09-06T15:08:16.360Z,100706.78
2018-09-06T15:10:45.228Z,100709.13
2018-09-06T15:13:14.169Z,100706.84
2018-09-06T15:15:43.041Z,100703.68
2018-09-06T15:18:11.918Z,100705.47
2018-09-06T15:20:40.759Z,100696.06
2018-09-06T15:23:09.698Z,100697.97
2018-09-06T15:25:38.586Z,100687.89
2018-09-06T15:28:07.452Z,100682.27
2018-09-06T15:30:36.392Z,100683.09
2018-09-06T15:33:05.183Z,100681.39
2018-09-06T15:35:34.031Z,100676.48
2018-09-06T15:38:02.920Z,100681.78
2018-09-06T15:40:31.754Z,100682.71
2018-09-06T15:43:00.600Z,100680.02
2018-09-06T15:45:29.524Z,100674.48
2018-09-06T15:47:58.430Z,100678.08
2018-09-06T15:50:27.304Z,100671.80
2018-09-06T15:52:56.416Z,100667.02
2018-09-06T15:55:25.294Z,100675.59
2018-09-06T15:57:54.372Z,100688.47
2018-09-06T16:00:23.251Z,100687.59
2018-09-06T16:02:52.111Z,100688.06
2018-09-06T16:05:20.964Z,100698.39
2018-09-06T16:07:49.846Z,100705.55
2018-09-06T16:10:18.665Z,100705.94
2018-09-06T16:12:47.480Z,100711.37
2018-09-06T16:15:16.366Z,100709.39
2018-09-06T16:17:45.221Z,100710.78
2018-09-06T16:20:14.072Z,100712.40
2018-09-06T16:22:43.587Z,100706.97
2018-09-06T16:25:12.446Z,100693.06
2018-09-06T16:27:41.317Z,100691.88
2018-09-06T16:30:10.173Z,100690.97
2018-09-06T16:32:39.091Z,100692.55
2018-09-06T16:35:08.001Z,100699.16
2018-09-06T16:37:36.831Z,100702.76
2018-09-06T16:40:05.697Z,100710.53
2018-09-06T16:42:34.594Z,100701.63
2018-09-06T16:45:03.384Z,100708.82
2018-09-06T16:47:32.256Z,100710.86
2018-09-06T16:50:01.113Z,100716.68
2018-09-06T16:52:30.026Z,100711.57
2018-09-06T16:54:58.833Z,100710.86
2018-09-06T16:57:27.718Z,100718.37
2018-09-06T16:59:56.583Z,100720.91
2018-09-06T17:02:25.624Z,100725.35
2018-09-06T17:04:54.534Z,100732.82
2018-09-06T17:07:23.371Z,100727.99
2018-09-06T17:09:52.259Z,100733.59
2018-09-06T17:12:21.101Z,100740.73
2018-09-06T17:14:49.973Z,100743.33
2018-09-06T17:17:18.842Z,100747.12
2018-09-06T17:19:47.669Z,100742.48
2018-09-06T17:22:16.537Z,100741.25
2018-09-06T17:24:45.400Z,100742.63
2018-09-06T17:27:14.272Z,100749.16
2018-09-06T17:29:43.122Z,100746.33
2018-09-06T17:32:12.113Z,100752.56
2018-09-06T17:34:40.986Z,100758.24
2018-09-06T17:37:09.846Z,100757.34
2018-09-06T17:39:38.721Z,100749.88
2018-09-06T17:42:07.611Z,100746.41
2018-09-06T17:44:36.474Z,100742.95
2018-09-06T17:47:05.380Z,100749.92
2018-09-06T17:49:34.219Z,100757.92
2018-09-06T17:52:03.080Z,100757.73
2018-09-06T17:54:32.007Z,100760.66
2018-09-06T17:57:00.798Z,100758.91
2018-09-06T17:59:29.646Z,100768.70
2018-09-06T18:01:58.492Z,100766.28
2018-09-06T18:04:27.361Z,100762.39
2018-09-06T18:06:56.225Z,100760.34
2018-09-06T18:09:25.055Z,100770.11
2018-09-06T18:11:53.914Z,100775.47
2018-09-06T18:14:22.761Z,100765.76
2018-09-06T18:16:51.611Z,100762.82
2018-09-06T18:19:20.445Z,100767.25
2018-09-06T18:21:49.293Z,100760.33
2018-09-06T18:24:18.153Z,100764.00
2018-09-06T18:26:46.979Z,100766.19
2018-09-06T18:29:15.822Z,100772.26
2018-09-06T18:31:44.680Z,100775.25
2018-09-06T18:34:13.515Z,100778.03
2018-09-06T18:36:42.388Z,100773.47
2018-09-06T18:39:11.303Z,100775.23
2018-09-06T18:41:40.189Z,100772.23
2018-09-06T18:44:09.177Z,100776.89
2018-09-06T18:46:37.948Z,100772.20
2018-09-06T18:49:06.762Z,100773.97
2018-09-06T18:51:35.612Z,100773.99
2018-09-06T18:54:04.440Z,100782.64
2018-09-06T18:56:33.332Z,100775.69
2018-09-06T18:59:02.192Z,100779.74
2018-09-06T19:01:31.069Z,100775.06
2018-09-06T19:03:59.912Z,100767.91
2018-09-06T19:06:28.788Z,100774.96
2018-09-06T19:08:57.594Z,100770.23
2018-09-06T19:11:26.459Z,100774.00
2018-09-06T19:13:55.358Z,100768.25
2018-09-06T19:16:24.237Z,100773.74
2018-09-06T19:18:53.064Z,100775.63
2018-09-06T19:21:21.907Z,100778.63
2018-09-06T19:23:50.762Z,100776.30
2018-09-06T19:26:19.722Z,100775.11
2018-09-06T19:28:48.502Z,100775.95
2018-09-06T19:31:17.361Z,100780.06
2018-09-06T19:33:46.221Z,100772.55
2018-09-06T19:36:15.060Z,100770.55
2018-09-06T19:38:43.949Z,100778.27
2018-09-06T19:41:12.789Z,100776.05
2018-09-06T19:43:41.648Z,100780.16
2018-09-06T19:46:10.578Z,100782.37
2018-09-06T19:48:39.435Z,100778.84
2018-09-06T19:51:08.318Z,100777.13
2018-09-06T19:53:37.168Z,100779.81
2018-09-06T19:56:06.088Z,100775.33
2018-09-06T19:58:34.968Z,100780.83
2018-09-06T20:01:03.870Z,100780.31
2018-09-06T20:03:32.729Z,100776.70
2018-09-06T20:06:01.624Z,100770.16
2018-09-06T20:08:30.633Z,100774.47
2018-09-06T20:10:59.411Z,100781.84
2018-09-06T20:13:28.268Z,100778.06
2018-09-06T20:15:57.147Z,100787.16
2018-09-06T20:18:26.007Z,100777.41
2018-09-06T20:20:54.851Z,100771.98
2018-09-06T20:23:23.713Z,100770.92
2018-09-06T20:25:52.557Z,100773.36
2018-09-06T20:28:21.605Z,100768.91
2018-09-06T20:30:50.281Z,100770.46
2018-09-06T20:33:19.142Z,100769.97
2018-09-06T20:35:48.016Z,100772.20
2018-09-06T20:38:16.860Z,100767.45
2018-09-06T20:40:45.744Z,100771.56
2018-09-06T20:43:14.601Z,100760.80
2018-09-06T20:45:43.463Z,100761.48
2018-09-06T20:48:12.337Z,100763.42
2018-09-06T20:50:41.187Z,100767.70
2018-09-06T20:53:10.053Z,100772.69
2018-09-06T20:55:38.875Z,100785.17
2018-09-06T20:58:07.742Z,100783.06
2018-09-06T21:00:36.622Z,100774.73
2018-09-06T21:03:05.562Z,100781.77
2018-09-06T21:05:34.348Z,100782.84
2018-09-06T21:08:03.204Z,100788.98
2018-09-06T21:10:32.084Z,100790.38
2018-09-06T21:13:00.950Z,100791.56
2018-09-06T21:15:29.808Z,100795.83
2018-09-06T21:17:58.671Z,100792.06
2018-09-06T21:20:27.557Z,100788.60
2018-09-06T21:22:56.409Z,100788.08
2018-09-06T21:25:25.291Z,100786.19
2018-09-06T21:27:54.141Z,100793.03
2018-09-06T21:30:23.001Z,100783.12
2018-09-06T21:32:51.857Z,100792.80
2018-09-06T21:35:20.726Z,100786.80
2018-09-06T21:37:49.604Z,100784.42
2018-09-06T21:40:18.446Z,100785.45
2018-09-06T21:42:47.324Z,100794.23
2018-09-06T21:45:16.164Z,100784.26
2018-09-06T21:47:45.003Z,100783.45
2018-09-06T21:50:13.857Z,100790.30
2018-09-06T21:52:42.704Z,100784.82
2018-09-06T21:55:11.583Z,100783.98
2018-09-06T21:57:40.443Z,100785.22
2018-09-06T22:00:09.343Z,100782.16
2018-09-06T22:02:56.143Z,100784.55
2018-09-06T22:05:24.986Z,100781.98
2018-09-06T22:07:53.909Z,100786.08
2018-09-06T22:10:23.368Z,100782.62
2018-09-06T22:12:53.077Z,100781.23
2018-09-06T22:15:21.945Z,100779.52
2018-09-06T22:17:50.839Z,100771.83
2018-09-06T22:20:19.690Z,100777.57
2018-09-06T22:22:48.526Z,100771.42
2018-09-06T22:25:17.401Z,100773.36
2018-09-06T22:27:46.271Z,100772.69
2018-09-06T22:30:15.118Z,100775.44
2018-09-06T22:32:44.002Z,100776.28
2018-09-06T22:35:12.859Z,100769.66
2018-09-06T22:37:41.760Z,100777.32
2018-09-06T22:40:10.633Z,100766.42
2018-09-06T22:42:39.531Z,100759.22
2018-09-06T22:45:08.419Z,100758.84
2018-09-06T22:47:37.297Z,100747.03
2018-09-06T22:50:06.217Z,100749.48
2018-09-06T22:52:35.106Z,100750.67
2018-09-06T22:55:04.034Z,100748.58
2018-09-06T22:57:33.243Z,100751.99
2018-09-06T23:00:02.315Z,100749.93
2018-09-06T23:02:49.397Z,100759.34
2018-09-06T23:05:18.323Z,100752.51
2018-09-06T23:07:47.172Z,100750.29
2018-09-06T23:10:16.060Z,100745.66
2018-09-06T23:12:44.950Z,100740.70
2018-09-06T23:15:13.825Z,100746.56
2018-09-06T23:17:42.694Z,100751.58
2018-09-06T23:20:11.579Z,100742.57
2018-09-06T23:22:40.414Z,100738.87
2018-09-06T23:25:10.079Z,100738.36
2018-09-06T23:27:38.891Z,100743.05
2018-09-06T23:30:07.819Z,100750.42
2018-09-06T23:32:36.688Z,100736.28
2018-09-06T23:35:05.557Z,100737.13
2018-09-06T23:37:34.418Z,100735.72
2018-09-06T23:40:03.267Z,100731.66
2018-09-06T23:42:32.251Z,100733.72
2018-09-06T23:45:01.107Z,100738.68
2018-09-06T23:47:30.011Z,100740.67
2018-09-06T23:49:58.927Z,100734.00
2018-09-06T23:52:27.815Z,100735.09
2018-09-06T23:54:56.675Z,100732.23
2018-09-06T23:57:25.539Z,100730.25
2018-09-06T23:59:54.396Z,100731.80
